Time;durP1;ratioP1;P1;durP2;ratioP2;P2;SDS_P1;SDS_P2;PMS_P1;PMS_P2;Temp;Humidity;BMP_temperature;BMP_pressure;BME280_temperature;BME280_humidity;BME280_pressure;Samples;Min_cycle;Max_cycle;Signal;HPM_P1;HPM_P2
2023/05/04 00:00:04;;;;;;;24.98;12.25;;;;;;;11.65;81.97;100007.06;3164661;28;20043;-75
2023/05/04 00:01:36;;;;;;;23.73;13.52;;;;;;;11.46;81.96;99979.22;3164303;28;20043;-75
2023/05/04 00:03:08;;;;;;;22.05;12.82;;;;;;;11.63;81.89;100008.91;3169848;28;20097;-75
2023/05/04 00:04:41;;;;;;;21.20;13.32;;;;;;;11.63;81.81;100003.69;3165269;28;20485;-75
2023/05/04 00:06:13;;;;;;;24.83;13.50;;;;;;;11.59;82.27;100008.19;3161793;28;20520;-74
2023/05/04 00:07:46;;;;;;;25.55;14.80;;;;;;;11.53;82.20;99998.03;3170421;28;20100;-74
2023/05/04 00:09:18;;;;;;;25.73;14.05;;;;;;;11.61;82.57;100009.81;3167497;28;20039;-74
2023/05/04 00:10:50;;;;;;;29.27;14.02;;;;;;;11.57;82.17;100010.88;3166311;28;20058;-74
2023/05/04 00:12:22;;;;;;;27.40;13.45;;;;;;;11.59;82.48;100001.25;3169837;28;20055;-74
2023/05/04 00:13:53;;;;;;;27.10;14.48;;;;;;;11.49;82.43;99981.69;3170203;28;20120;-74
2023/05/04 00:15:26;;;;;;;25.60;12.68;;;;;;;11.61;82.76;100001.16;3169724;28;20524;-73
2023/05/04 00:16:58;;;;;;;24.25;12.85;;;;;;;11.44;82.87;99975.84;3162989;28;20838;-75
2023/05/04 00:18:29;;;;;;;23.98;13.07;;;;;;;11.59;82.71;100000.38;3170330;28;20059;-74
2023/05/04 00:20:01;;;;;;;30.85;14.27;;;;;;;11.57;83.04;99994.41;3170016;28;20055;-74
2023/05/04 00:21:33;;;;;;;23.50;13.40;;;;;;;11.59;82.82;99997.75;3170006;28;20047;-73
2023/05/04 00:23:06;;;;;;;28.25;13.02;;;;;;;11.58;83.39;99998.69;3170179;28;20489;-74
2023/05/04 00:24:38;;;;;;;25.38;12.95;;;;;;;11.54;83.41;100000.59;3159993;28;20483;-74
2023/05/04 00:26:09;;;;;;;23.63;13.60;;;;;;;11.54;83.19;100005.81;3166123;28;20528;-74
2023/05/04 00:27:41;;;;;;;24.83;13.18;;;;;;;11.56;83.36;100006.56;3165808;28;20047;-77
2023/05/04 00:29:12;;;;;;;27.05;13.50;;;;;;;11.46;83.32;99994.03;3170032;28;20043;-75
2023/05/04 00:30:44;;;;;;;22.20;12.50;;;;;;;11.56;83.39;100009.16;3170285;28;20057;-75
2023/05/04 00:32:15;;;;;;;20.10;12.73;;;;;;;11.56;83.29;100003.94;3169757;28;20051;-74
2023/05/04 00:33:46;;;;;;;29.23;14.60;;;;;;;11.57;83.77;100010.03;3169978;28;20448;-75
2023/05/04 00:35:18;;;;;;;25.27;14.35;;;;;;;11.52;83.69;99989.38;3169907;28;20058;-74
2023/05/04 00:36:50;;;;;;;24.73;13.95;;;;;;;11.53;83.53;100003.25;3169585;28;20527;-75
2023/05/04 00:38:23;;;;;;;22.90;13.07;;;;;;;11.52;83.96;100004.19;3170013;28;20044;-74
2023/05/04 00:39:55;;;;;;;25.50;15.27;;;;;;;11.49;83.82;99997.34;3159013;28;20052;-75
2023/05/04 00:41:27;;;;;;;27.50;15.13;;;;;;;11.51;83.82;99986.84;3170145;28;20039;-75
2023/05/04 00:42:58;;;;;;;24.75;14.35;;;;;;;11.55;83.72;99997.06;3144585;28;20147;-75
2023/05/04 00:44:29;;;;;;;28.02;13.57;;;;;;;11.56;84.06;100000.50;3168733;28;20416;-74
2023/05/04 00:46:01;;;;;;;28.67;15.52;;;;;;;11.58;84.08;100012.56;3169479;28;20047;-74
2023/05/04 00:47:33;;;;;;;27.10;15.50;;;;;;;11.56;84.05;100009.16;3161368;28;20052;-75
2023/05/04 00:49:06;;;;;;;30.23;15.25;;;;;;;11.52;84.30;99996.34;3166575;28;20052;-76
2023/05/04 00:50:38;;;;;;;26.58;13.80;;;;;;;11.51;84.29;99989.47;3161453;28;20048;-75
2023/05/04 00:52:13;;;;;;;24.10;14.23;;;;;;;11.48;84.44;99974.78;3165260;28;20259;-74
2023/05/04 00:53:47;;;;;;;26.58;14.30;;;;;;;11.55;84.23;99991.84;3163738;28;20052;-75
2023/05/04 00:55:19;;;;;;;26.25;15.50;;;;;;;11.56;84.41;99990.06;3163643;28;20050;-75
2023/05/04 00:56:51;;;;;;;29.98;14.85;;;;;;;11.51;84.74;99979.88;3169397;28;20070;-74
2023/05/04 00:58:24;;;;;;;28.83;14.40;;;;;;;11.54;84.74;99990.16;3169443;28;20152;-74
2023/05/04 00:59:56;;;;;;;21.27;12.75;;;;;;;11.16;84.51;99924.97;3170128;28;20043;-74
2023/05/04 01:01:28;;;;;;;27.70;14.38;;;;;;;11.57;84.30;99979.59;3163435;28;20105;-74
2023/05/04 01:03:00;;;;;;;31.73;15.90;;;;;;;11.57;84.28;99984.81;3169385;28;20048;-74
2023/05/04 01:04:32;;;;;;;27.00;15.25;;;;;;;11.57;84.45;99990.03;3168328;28;20100;-74
2023/05/04 01:06:14;;;;;;;26.73;13.70;;;;;;;11.55;84.62;99976.19;3156319;28;20052;-74
2023/05/04 01:07:54;;;;;;;29.10;15.25;;;;;;;11.60;84.80;99974.22;3160154;28;20055;-74
2023/05/04 01:09:36;;;;;;;25.48;13.85;;;;;;;11.60;84.52;99978.59;3165583;28;20077;-74
2023/05/04 01:11:11;;;;;;;27.23;13.77;;;;;;;11.58;84.58;99977.81;3169839;28;20432;-74
2023/05/04 01:12:51;;;;;;;31.95;14.85;;;;;;;11.52;84.79;99971.13;3170006;28;20043;-74
2023/05/04 01:14:22;;;;;;;26.08;13.65;;;;;;;11.35;84.92;99938.00;3169447;28;20044;-74
2023/05/04 01:15:54;;;;;;;30.80;14.70;;;;;;;11.60;84.76;99989.03;3171071;28;20051;-74
2023/05/04 01:17:26;;;;;;;27.60;13.50;;;;;;;11.56;84.93;99992.69;3163229;28;20060;-73
2023/05/04 01:18:58;;;;;;;26.20;13.15;;;;;;;11.56;84.66;99996.13;3172787;28;20057;-74
2023/05/04 01:20:30;;;;;;;27.38;13.18;;;;;;;11.59;84.56;99995.16;3172311;28;20448;-73
2023/05/04 01:22:03;;;;;;;22.15;12.00;;;;;;;11.60;84.74;99989.03;3172175;28;20044;-75
2023/05/04 01:23:34;;;;;;;26.13;13.25;;;;;;;11.56;84.79;99987.47;3167791;28;20445;-75
2023/05/04 01:25:07;;;;;;;26.58;11.98;;;;;;;11.26;84.65;99938.41;3172320;28;20048;-74
2023/05/04 01:26:43;;;;;;;19.48;11.57;;;;;;;11.42;84.46;99966.38;3168345;28;20130;-78
2023/05/04 01:28:19;;;;;;;27.95;12.18;;;;;;;11.56;84.86;99977.03;3171692;28;20052;-78
2023/05/04 01:29:56;;;;;;;29.48;12.55;;;;;;;11.54;84.74;99984.94;3171965;28;20520;-78
2023/05/04 01:31:29;;;;;;;27.15;11.93;;;;;;;11.51;84.69;99979.03;3171922;28;20164;-78
2023/05/04 01:33:02;;;;;;;28.15;13.50;;;;;;;11.51;84.89;99979.88;3172088;28;20062;-78
2023/05/04 01:34:35;;;;;;;25.48;12.35;;;;;;;11.50;85.15;99977.31;3161319;28;20125;-78
2023/05/04 01:36:07;;;;;;;24.45;13.20;;;;;;;11.51;84.82;99976.41;3169763;28;20467;-77
2023/05/04 01:37:40;;;;;;;28.75;12.77;;;;;;;11.51;84.73;99966.00;3160170;28;20460;-77
2023/05/04 01:39:12;;;;;;;32.50;13.82;;;;;;;11.47;84.78;99967.88;3162426;28;20036;-78
2023/05/04 01:40:43;;;;;;;28.52;14.23;;;;;;;11.50;85.09;99966.88;3167153;28;20059;-78
2023/05/04 01:42:15;;;;;;;25.77;13.52;;;;;;;11.51;84.82;99977.25;3172281;28;20448;-78
2023/05/04 01:43:46;;;;;;;27.88;13.23;;;;;;;11.51;84.96;99964.22;3170066;28;20077;-78
2023/05/04 01:45:18;;;;;;;25.40;13.45;;;;;;;11.44;84.71;99957.59;3172143;28;20046;-77
2023/05/04 01:46:50;;;;;;;24.70;13.00;;;;;;;11.55;84.83;99964.91;3171644;28;20051;-74
2023/05/04 01:48:22;;;;;;;27.25;13.55;;;;;;;11.55;84.81;99965.75;3172269;28;20061;-74
2023/05/04 01:49:54;;;;;;;25.52;13.13;;;;;;;11.53;84.85;99961.53;3171938;28;20056;-74
2023/05/04 01:51:26;;;;;;;27.17;14.00;;;;;;;11.29;84.72;99927.00;3171257;28;20056;-74
2023/05/04 01:52:59;;;;;;;27.23;13.68;;;;;;;11.54;85.01;99971.91;3166722;28;20295;-74
2023/05/04 01:54:31;;;;;;;26.20;14.23;;;;;;;11.49;84.70;99971.25;3159908;28;20048;-74
2023/05/04 01:56:02;;;;;;;34.03;16.83;;;;;;;11.52;85.15;99965.06;3171765;28;20052;-73
2023/05/04 01:57:34;;;;;;;27.50;14.85;;;;;;;11.42;84.80;99956.81;3171782;28;20984;-74
2023/05/04 01:59:04;;;;;;;26.50;14.38;;;;;;;11.45;85.07;99959.28;3171725;28;20116;-74
2023/05/04 02:00:36;;;;;;;29.92;15.20;;;;;;;11.49;85.17;99970.44;3167889;28;20090;-73
2023/05/04 02:02:09;;;;;;;28.10;14.95;;;;;;;11.48;85.05;99977.41;3160163;28;20044;-73
2023/05/04 02:03:41;;;;;;;24.88;14.40;;;;;;;11.51;85.05;99981.63;3159168;28;20138;-74
2023/05/04 02:05:13;;;;;;;29.65;15.70;;;;;;;11.49;84.65;99986.91;3158738;28;20044;-75
2023/05/04 02:06:46;;;;;;;28.60;15.10;;;;;;;11.53;84.76;99990.22;3166625;28;20097;-75
2023/05/04 02:08:20;;;;;;;28.35;15.60;;;;;;;11.54;84.84;99984.94;3166985;28;20062;-74
2023/05/04 02:09:51;;;;;;;;;;;;;;;11.48;84.34;99990.44;3172181;28;20595;-74
2023/05/04 02:11:22;;;;;;;27.60;14.75;;;;;;;11.49;84.89;99988.69;3164834;28;19924;-75
2023/05/04 02:12:55;;;;;;;26.08;14.13;;;;;;;11.51;84.49;99989.47;3158840;28;20092;-76
2023/05/04 02:14:27;;;;;;;28.77;14.90;;;;;;;11.50;84.59;99985.16;3163448;28;20096;-74
2023/05/04 02:15:58;;;;;;;27.52;14.77;;;;;;;11.53;84.84;99982.41;3162676;28;20055;-74
2023/05/04 02:17:30;;;;;;;27.58;14.82;;;;;;;11.52;84.88;99981.56;3159678;28;20054;-74
2023/05/04 02:19:02;;;;;;;26.27;14.27;;;;;;;11.54;84.64;99977.13;3161124;28;20499;-74
2023/05/04 02:20:33;;;;;;;23.77;13.85;;;;;;;11.57;84.93;99976.97;3170948;28;20051;-74
2023/05/04 02:22:05;;;;;;;26.92;14.70;;;;;;;11.59;84.88;99985.59;3158913;28;20526;-74
2023/05/04 02:23:38;;;;;;;28.40;13.77;;;;;;;11.59;84.80;99979.50;3159010;28;20124;-74
2023/05/04 02:25:09;;;;;;;32.25;12.60;;;;;;;11.65;84.40;99983.59;3159259;28;20117;-74
2023/05/04 02:26:41;;;;;;;28.80;15.02;;;;;;;11.67;84.63;99982.59;3163202;28;20159;-74
2023/05/04 02:28:12;;;;;;;30.83;16.63;;;;;;;11.67;84.67;99980.00;3168576;28;20081;-74
2023/05/04 02:29:43;;;;;;;33.83;15.20;;;;;;;11.63;84.42;99983.69;3171755;28;20062;-73
2023/05/04 02:31:15;;;;;;;26.58;14.07;;;;;;;11.63;84.69;99980.22;3171240;28;20490;-74
2023/05/04 02:32:46;;;;;;;33.00;16.08;;;;;;;11.63;84.70;99988.06;3171156;28;20124;-74
2023/05/04 02:34:18;;;;;;;23.08;13.90;;;;;;;11.63;84.77;99999.31;3170954;28;20530;-73
2023/05/04 02:35:50;;;;;;;33.97;15.60;;;;;;;11.65;84.36;99989.66;3171399;28;20043;-75
2023/05/04 02:37:22;;;;;;;31.35;16.20;;;;;;;11.65;84.50;99988.81;3166811;28;20047;-74
2023/05/04 02:38:57;;;;;;;24.35;14.70;;;;;;;11.67;84.37;99994.81;3168586;28;20101;-74
2023/05/04 02:40:29;;;;;;;27.63;15.10;;;;;;;11.65;84.39;99991.41;3164652;28;20056;-74
2023/05/04 02:42:01;;;;;;;30.58;16.02;;;;;;;11.70;84.28;99998.13;3171678;28;20066;-76
2023/05/04 02:43:33;;;;;;;26.10;13.50;;;;;;;11.71;84.00;99996.34;3171312;28;20055;-76
2023/05/04 02:45:06;;;;;;;30.35;14.60;;;;;;;11.67;84.20;99986.97;3170846;28;20524;-76
2023/05/04 02:46:38;;;;;;;29.85;14.75;;;;;;;11.74;84.03;100001.41;3171546;28;20090;-76
2023/05/04 02:48:10;;;;;;;25.95;13.77;;;;;;;11.47;84.27;99959.22;3171205;28;20534;-77
2023/05/04 02:49:41;;;;;;;28.38;14.43;;;;;;;11.77;84.05;100007.34;3170885;28;20047;-77
2023/05/04 02:51:12;;;;;;;26.08;13.50;;;;;;;11.79;83.96;100007.28;3167379;28;20040;-76
2023/05/04 02:52:43;;;;;;;33.13;13.80;;;;;;;11.77;84.21;100001.28;3171114;28;20048;-77
2023/05/04 02:54:17;;;;;;;28.23;13.65;;;;;;;11.71;83.98;99991.13;3160806;28;20052;-75
2023/05/04 02:55:48;;;;;;;26.25;13.18;;;;;;;11.79;84.12;100012.50;3170804;28;20100;-76
2023/05/04 02:57:19;;;;;;;28.08;15.05;;;;;;;11.80;84.35;100012.44;3171257;28;20108;-75
2023/05/04 02:58:51;;;;;;;27.55;13.88;;;;;;;11.81;84.62;100008.06;3159079;28;20051;-75
2023/05/04 03:00:23;;;;;;;25.48;12.55;;;;;;;11.79;84.53;100012.50;3167050;28;20043;-75
2023/05/04 03:01:55;;;;;;;28.73;14.27;;;;;;;11.78;84.53;100005.59;3168170;28;20051;-75
2023/05/04 03:03:27;;;;;;;23.40;12.88;;;;;;;11.77;84.80;100006.50;3171130;28;20550;-77
2023/05/04 03:04:58;;;;;;;31.33;14.95;;;;;;;11.78;84.48;100010.81;3165414;28;20047;-76
2023/05/04 03:06:30;;;;;;;26.50;13.88;;;;;;;11.71;84.52;100006.78;3165372;28;20108;-77
2023/05/04 03:08:02;;;;;;;27.95;15.07;;;;;;;11.74;84.54;100017.94;3170957;28;20075;-76
2023/05/04 03:09:35;;;;;;;25.35;13.85;;;;;;;11.73;85.02;100023.22;3170330;28;20161;-76
2023/05/04 03:11:06;;;;;;;;;;;;;;;11.61;85.02;100017.63;3164141;28;20043;-77
2023/05/04 03:12:38;;;;;;;23.60;13.82;;;;;;;11.59;85.54;100013.41;3170888;28;19919;-76
2023/05/04 03:14:09;;;;;;;26.23;15.27;;;;;;;11.59;85.86;100018.63;3171104;28;20764;-78
2023/05/04 03:15:40;;;;;;;23.95;13.70;;;;;;;11.57;85.74;100015.25;3170965;28;20092;-78
2023/05/04 03:17:12;;;;;;;26.83;15.07;;;;;;;11.54;86.28;100018.84;3163133;28;20060;-76
2023/05/04 03:18:43;;;;;;;29.52;15.15;;;;;;;11.42;86.33;100014.19;3170614;28;20054;-75
2023/05/04 03:20:15;;;;;;;41.83;18.27;;;;;;;11.54;86.29;100026.69;3166651;28;20040;-76
2023/05/04 03:21:47;;;;;;;27.58;14.85;;;;;;;11.51;86.41;100028.59;3145989;28;20044;-76
2023/05/04 03:23:19;;;;;;;28.50;15.32;;;;;;;11.47;86.51;100022.63;3170348;28;20545;-76
2023/05/04 03:24:52;;;;;;;29.92;14.40;;;;;;;11.49;86.86;100030.41;3170524;28;20047;-75
2023/05/04 03:26:23;;;;;;;27.17;15.05;;;;;;;11.44;86.57;100024.53;3168545;28;20073;-76
2023/05/04 03:27:55;;;;;;;29.95;15.40;;;;;;;11.48;86.85;100036.56;3165496;28;20193;-76
2023/05/04 03:29:27;;;;;;;26.00;14.30;;;;;;;11.44;86.86;100034.97;3170768;28;20096;-76
2023/05/04 03:30:57;;;;;;;28.83;13.90;;;;;;;11.46;86.67;100036.59;3170623;28;20052;-76
2023/05/04 03:32:29;;;;;;;28.48;13.65;;;;;;;11.47;86.79;100040.88;3170586;28;20481;-75
2023/05/04 03:34:00;;;;;;;21.52;12.98;;;;;;;11.49;86.74;100041.69;3160184;28;20055;-75
2023/05/04 03:35:32;;;;;;;27.45;14.00;;;;;;;11.47;86.64;100034.84;3161450;28;20051;-75
2023/05/04 03:37:04;;;;;;;29.73;14.32;;;;;;;11.48;86.57;100031.34;3163054;28;20075;-76
2023/05/04 03:38:36;;;;;;;26.33;14.43;;;;;;;11.47;86.74;100033.06;3169731;28;20093;-76
2023/05/04 03:40:10;;;;;;;20.17;13.02;;;;;;;11.47;86.75;100035.69;3158367;28;20044;-75
2023/05/04 03:41:42;;;;;;;24.48;13.75;;;;;;;11.46;87.02;100030.53;3159965;28;20048;-76
2023/05/04 03:43:13;;;;;;;28.38;14.73;;;;;;;11.43;86.79;100031.53;3170441;28;20464;-75
2023/05/04 03:44:46;;;;;;;28.17;14.15;;;;;;;11.47;86.68;100033.06;3168249;28;20061;-75
2023/05/04 03:46:17;;;;;;;29.15;14.20;;;;;;;11.49;86.74;100033.00;3170814;28;20416;-75
2023/05/04 03:47:49;;;;;;;26.95;13.30;;;;;;;11.49;86.99;100020.81;3170541;28;20047;-75
2023/05/04 03:49:21;;;;;;;25.60;13.30;;;;;;;11.51;86.65;100018.16;3166977;28;20055;-75
2023/05/04 03:50:53;;;;;;;23.10;13.75;;;;;;;11.42;86.83;100001.16;3169423;28;20051;-76
2023/05/04 03:52:24;;;;;;;27.98;15.48;;;;;;;11.53;86.69;100011.91;3170469;28;20440;-76
2023/05/04 03:53:56;;;;;;;27.75;13.90;;;;;;;11.52;86.49;100019.84;3162274;28;20058;-75
2023/05/04 03:55:29;;;;;;;27.80;14.15;;;;;;;11.51;86.72;100013.78;3157999;28;20105;-76
2023/05/04 03:57:03;;;;;;;29.80;14.55;;;;;;;11.49;86.73;100028.63;3158028;28;20414;-77
2023/05/04 03:58:35;;;;;;;29.55;14.00;;;;;;;11.50;87.07;100019.88;3158162;28;20155;-76
2023/05/04 04:00:08;;;;;;;27.83;13.85;;;;;;;11.46;86.79;100020.13;3161421;28;20040;-75
2023/05/04 04:01:40;;;;;;;28.25;15.48;;;;;;;11.45;86.65;100027.09;3164781;28;20044;-77
2023/05/04 04:03:11;;;;;;;28.80;16.27;;;;;;;11.49;86.75;100041.69;3170162;28;20047;-79
2023/05/04 04:04:43;;;;;;;26.80;15.15;;;;;;;11.50;86.44;100038.13;3163385;28;20052;-76
2023/05/04 04:06:15;;;;;;;27.92;14.63;;;;;;;11.52;86.48;100038.94;3162108;28;20100;-76
2023/05/04 04:07:47;;;;;;;29.95;15.60;;;;;;;11.52;86.32;100038.94;3169918;28;20044;-76
2023/05/04 04:09:19;;;;;;;27.63;15.25;;;;;;;11.39;86.46;100023.00;3170118;28;20043;-77
2023/05/04 04:10:52;;;;;;;30.92;16.33;;;;;;;11.53;86.31;100040.63;3170086;28;20373;-76
2023/05/04 04:12:24;;;;;;;25.60;15.38;;;;;;;11.53;86.58;100045.81;3170140;28;20047;-76
2023/05/04 04:13:56;;;;;;;34.75;16.92;;;;;;;11.55;86.48;100046.63;3170272;28;20052;-73
2023/05/04 04:15:27;;;;;;;31.90;16.42;;;;;;;11.50;86.40;100035.53;3161276;28;20102;-72
2023/05/04 04:16:59;;;;;;;28.80;16.08;;;;;;;11.56;86.26;100047.44;3162916;28;20043;-75
2023/05/04 04:18:31;;;;;;;30.40;15.77;;;;;;;11.56;85.90;100048.28;3165965;28;20462;-74
2023/05/04 04:20:03;;;;;;;30.88;15.35;;;;;;;11.60;85.73;100046.41;3160815;28;20047;-75
2023/05/04 04:21:35;;;;;;;25.75;14.98;;;;;;;11.61;85.56;100059.38;3169419;28;20047;-72
2023/05/04 04:23:07;;;;;;;27.20;15.27;;;;;;;11.61;85.16;100051.56;3166831;28;20045;-72
2023/05/04 04:24:39;;;;;;;27.83;15.70;;;;;;;11.54;84.70;100029.28;3151492;28;20130;-78
2023/05/04 04:26:12;;;;;;;28.83;14.70;;;;;;;11.64;85.22;100041.91;3170173;28;20120;-76
2023/05/04 04:27:44;;;;;;;30.15;15.98;;;;;;;11.56;85.39;100030.03;3147432;28;20533;-74
2023/05/04 04:29:16;;;;;;;32.15;18.25;;;;;;;11.43;85.30;100008.06;3157568;28;20052;-76
2023/05/04 04:30:48;;;;;;;42.55;23.60;;;;;;;11.59;85.74;100042.09;3158111;28;20128;-78
2023/05/04 04:32:21;;;;;;;39.95;23.02;;;;;;;11.59;85.95;100042.97;3163902;28;20048;-74
2023/05/04 04:33:53;;;;;;;34.83;18.83;;;;;;;11.62;85.76;100049.78;3167816;28;20583;-78
2023/05/04 04:35:26;;;;;;;27.33;16.05;;;;;;;11.61;85.98;100048.94;3144584;28;20045;-75
2023/05/04 04:36:58;;;;;;;31.63;15.95;;;;;;;11.56;85.87;100044.84;3168591;28;20142;-76
2023/05/04 04:38:30;;;;;;;32.35;17.20;;;;;;;11.60;86.19;100049.03;3169198;28;20094;-75
2023/05/04 04:40:02;;;;;;;49.65;26.35;;;;;;;11.62;85.96;100055.00;3167138;28;20055;-77
2023/05/04 04:41:36;;;;;;;33.70;17.73;;;;;;;11.63;85.97;100055.88;3169053;28;20051;-76
2023/05/04 04:43:07;;;;;;;50.65;28.65;;;;;;;11.64;86.04;100057.56;3166032;28;20478;-71
2023/05/04 04:44:39;;;;;;;33.20;19.27;;;;;;;11.66;86.05;100055.72;3157407;28;20058;-70
2023/05/04 04:46:11;;;;;;;39.90;22.65;;;;;;;11.65;86.36;100056.63;3160061;28;20088;-73
2023/05/04 04:47:43;;;;;;;27.52;14.40;;;;;;;11.69;86.21;100066.03;3169393;28;20051;-77
2023/05/04 04:49:16;;;;;;;23.87;13.97;;;;;;;11.71;86.26;100058.97;3160180;28;20047;-75
2023/05/04 04:50:48;;;;;;;40.72;23.20;;;;;;;11.69;86.13;100061.66;3165248;28;20051;-75
2023/05/04 04:52:28;;;;;;;38.50;21.70;;;;;;;11.72;86.18;100073.72;3164800;28;20083;-77
2023/05/04 04:54:00;;;;;;;46.22;25.45;;;;;;;11.72;85.95;100068.50;3159226;28;20089;-75
2023/05/04 04:55:33;;;;;;;26.02;14.57;;;;;;;11.75;86.06;100077.03;3164496;28;20621;-72
2023/05/04 04:57:06;;;;;;;23.25;14.20;;;;;;;11.75;85.60;100073.56;3164500;28;20047;-72
2023/05/04 04:58:38;;;;;;;;;;;;;;;11.67;85.81;100078.28;3160658;28;20043;-75
2023/05/04 05:00:13;;;;;;;25.00;13.90;;;;;;;11.65;85.85;100080.09;3164477;28;19981;-73
2023/05/04 05:01:45;;;;;;;24.92;13.95;;;;;;;11.59;85.93;100060.34;3148804;28;20056;-75
2023/05/04 05:03:17;;;;;;;27.85;15.25;;;;;;;11.56;85.71;100057.88;3142775;28;20521;-72
2023/05/04 05:04:49;;;;;;;26.15;15.88;;;;;;;11.65;85.70;100080.94;3152532;28;20728;-73
2023/05/04 05:06:22;;;;;;;26.83;14.13;;;;;;;11.66;85.90;100076.59;3164472;28;20535;-71
2023/05/04 05:07:55;;;;;;;27.45;15.05;;;;;;;11.64;85.91;100071.44;3157765;28;20060;-73
2023/05/04 05:09:27;;;;;;;32.50;15.27;;;;;;;11.64;85.81;100073.22;3160148;28;20073;-75
2023/05/04 05:10:59;;;;;;;30.07;16.47;;;;;;;11.61;86.04;100071.56;3160446;28;20070;-73
2023/05/04 05:12:33;;;;;;;29.00;16.58;;;;;;;11.65;86.04;100080.09;3164172;28;20851;-74
2023/05/04 05:14:05;;;;;;;25.90;14.20;;;;;;;11.67;85.95;100076.50;3159965;28;20051;-76
2023/05/04 05:15:37;;;;;;;24.80;14.93;;;;;;;11.71;85.75;100074.59;3163706;28;20063;-75
2023/05/04 05:17:09;;;;;;;23.95;15.00;;;;;;;11.72;85.55;100065.88;3161005;28;20576;-72
2023/05/04 05:18:41;;;;;;;28.25;15.30;;;;;;;11.77;85.81;100075.19;3159823;28;20066;-74
2023/05/04 05:20:14;;;;;;;28.70;15.07;;;;;;;11.75;85.73;100070.97;3148991;28;20052;-76
2023/05/04 05:21:46;;;;;;;28.50;16.42;;;;;;;11.75;85.72;100076.19;3158273;28;20083;-76
2023/05/04 05:23:18;;;;;;;30.75;16.67;;;;;;;11.73;85.65;100072.78;3151825;28;20083;-75
2023/05/04 05:24:50;;;;;;;29.73;15.77;;;;;;;11.75;85.95;100078.78;3139228;28;20536;-73
2023/05/04 05:26:23;;;;;;;26.35;14.98;;;;;;;11.75;86.09;100078.78;3153018;28;20054;-74
2023/05/04 05:27:57;;;;;;;24.45;14.80;;;;;;;11.76;86.08;100076.09;3161753;28;20052;-74
2023/05/04 05:29:28;;;;;;;;;;;;;;;11.71;85.84;100079.81;3163172;28;20051;-75
2023/05/04 05:31:00;;;;;;;28.90;14.57;;;;;;;11.72;86.16;100076.31;3162196;28;19927;-74
2023/05/04 05:32:33;;;;;;;25.63;14.80;;;;;;;11.76;85.82;100072.66;3164176;28;20053;-74
2023/05/04 05:34:05;;;;;;;33.60;14.88;;;;;;;11.81;85.98;100074.13;3160668;28;20048;-72
2023/05/04 05:35:37;;;;;;;27.52;15.73;;;;;;;11.83;85.66;100074.91;3156138;28;20051;-74
2023/05/04 05:37:10;;;;;;;29.42;14.77;;;;;;;11.86;85.46;100073.09;3154895;28;20532;-74
2023/05/04 05:38:42;;;;;;;29.15;15.38;;;;;;;11.87;85.49;100080.03;3163131;28;20066;-73
2023/05/04 05:40:14;;;;;;;28.17;15.07;;;;;;;11.80;85.84;100080.28;3154730;28;20130;-73
2023/05/04 05:41:46;;;;;;;26.95;14.40;;;;;;;11.83;85.49;100074.03;3164127;28;20051;-73
2023/05/04 05:43:20;;;;;;;24.27;13.75;;;;;;;11.88;85.67;100085.16;3160744;28;20040;-73
2023/05/04 05:44:52;;;;;;;26.63;14.25;;;;;;;11.88;85.31;100081.72;3163894;28;20116;-73
2023/05/04 05:46:26;;;;;;;23.35;12.70;;;;;;;11.88;85.48;100085.16;3161950;28;20047;-72
2023/05/04 05:47:58;;;;;;;24.42;12.18;;;;;;;11.90;85.41;100082.50;3151103;28;20354;-75
2023/05/04 05:49:30;;;;;;;22.38;13.27;;;;;;;11.91;85.32;100092.00;3160936;28;20131;-71
2023/05/04 05:51:03;;;;;;;24.20;13.13;;;;;;;11.77;85.34;100075.19;3154271;28;20052;-73
2023/05/04 05:52:35;;;;;;;23.95;13.93;;;;;;;11.93;84.93;100085.81;3156779;28;20063;-75
2023/05/04 05:54:07;;;;;;;20.65;12.60;;;;;;;11.94;85.17;100092.69;3154678;28;20071;-74
2023/05/04 05:55:38;;;;;;;21.30;11.95;;;;;;;11.72;84.89;100055.44;3161160;28;20138;-72
2023/05/04 05:57:11;;;;;;;28.67;12.18;;;;;;;11.97;85.10;100087.34;3164366;28;20058;-73
2023/05/04 05:58:44;;;;;;;20.85;11.82;;;;;;;11.98;84.57;100094.28;3159285;28;20047;-74
2023/05/04 06:00:18;;;;;;;26.25;14.30;;;;;;;11.78;84.80;100060.38;3163026;28;20168;-72
2023/05/04 06:01:50;;;;;;;;;;;;;;;11.83;84.84;100101.00;3155827;28;20130;-72
2023/05/04 06:03:22;;;;;;;28.45;13.93;;;;;;;11.85;85.11;100106.19;3166464;28;20152;-77
2023/05/04 06:04:54;;;;;;;30.42;13.52;;;;;;;11.89;84.92;100105.13;3157340;28;20521;-74
2023/05/04 06:06:26;;;;;;;24.63;14.27;;;;;;;11.93;84.74;100106.69;3166846;28;20158;-75
2023/05/04 06:07:59;;;;;;;32.05;14.70;;;;;;;11.96;84.87;100106.53;3156238;28;20519;-79
2023/05/04 06:09:31;;;;;;;28.87;14.53;;;;;;;11.94;84.92;100099.69;3166796;28;20062;-77
2023/05/04 06:11:03;;;;;;;34.60;13.43;;;;;;;11.95;84.84;100097.03;3166320;28;20907;-72
2023/05/04 06:12:35;;;;;;;26.35;13.52;;;;;;;11.90;84.68;100096.38;3166370;28;20786;-73
2023/05/04 06:14:09;;;;;;;21.95;13.48;;;;;;;12.00;84.72;100102.84;3154323;28;20103;-72
2023/05/04 06:15:41;;;;;;;26.33;13.07;;;;;;;11.98;84.54;100096.88;3164451;28;20119;-74
2023/05/04 06:17:13;;;;;;;22.17;13.75;;;;;;;11.92;84.32;100084.13;3156530;28;20052;-73
2023/05/04 06:18:45;;;;;;;25.98;14.63;;;;;;;12.06;84.62;100099.13;3158581;28;20056;-74
2023/05/04 06:20:18;;;;;;;20.07;13.00;;;;;;;12.04;84.19;100099.22;3159131;28;20653;-72
2023/05/04 06:21:50;;;;;;;24.50;13.18;;;;;;;12.09;84.62;100105.97;3166101;28;20313;-74
2023/05/04 06:23:24;;;;;;;22.70;12.88;;;;;;;12.09;84.17;100105.97;3166412;28;20536;-73
2023/05/04 06:24:56;;;;;;;25.10;12.65;;;;;;;12.06;84.55;100097.34;3166121;28;20501;-73
2023/05/04 06:26:28;;;;;;;24.67;12.43;;;;;;;12.04;84.23;100104.44;3155653;28;20117;-72
2023/05/04 06:28:01;;;;;;;22.27;12.55;;;;;;;12.04;84.28;100094.00;3146624;28;20047;-74
2023/05/04 06:29:36;;;;;;;30.25;13.90;;;;;;;12.03;84.13;100094.03;3158957;28;20163;-74
2023/05/04 06:31:08;;;;;;;23.45;13.38;;;;;;;12.04;84.16;100104.44;3166360;28;20052;-73
2023/05/04 06:32:40;;;;;;;33.05;15.73;;;;;;;12.03;84.19;100102.72;3166184;28;20499;-73
2023/05/04 06:34:13;;;;;;;34.75;18.55;;;;;;;12.00;84.50;100110.69;3161206;28;20443;-74
2023/05/04 06:35:45;;;;;;;27.93;17.73;;;;;;;12.00;84.38;100108.06;3164912;28;20112;-73
2023/05/04 06:37:18;;;;;;;33.28;19.75;;;;;;;11.99;84.79;100102.94;3166245;28;20047;-73
2023/05/04 06:38:50;;;;;;;42.05;21.20;;;;;;;11.96;84.70;100109.16;3163698;28;20082;-73
2023/05/04 06:40:22;;;;;;;35.08;20.20;;;;;;;11.98;84.48;100098.63;3157713;28;20490;-73
2023/05/04 06:41:55;;;;;;;34.72;19.90;;;;;;;11.96;84.53;100105.69;3166296;28;20047;-73
2023/05/04 06:43:27;;;;;;;40.63;19.67;;;;;;;11.96;84.64;100105.69;3156841;28;20148;-71
2023/05/04 06:45:00;;;;;;;34.92;20.17;;;;;;;11.96;84.94;100095.25;3155559;28;20128;-73
2023/05/04 06:46:35;;;;;;;36.22;19.83;;;;;;;11.96;84.64;100096.09;3165626;28;20055;-72
2023/05/04 06:48:26;;;;;;;33.17;19.48;;;;;;;11.95;85.13;100104.84;3165908;28;20058;-71
2023/05/04 06:49:58;;;;;;;34.25;19.17;;;;;;;11.94;85.49;100103.16;3166422;28;20089;-71
2023/05/04 06:51:30;;;;;;;31.90;18.40;;;;;;;11.76;85.48;100073.50;3165576;28;20821;-70
2023/05/04 06:53:04;;;;;;;40.50;20.52;;;;;;;11.98;85.58;100102.09;3165931;28;20483;-73
2023/05/04 06:54:35;;;;;;;;;;;;;;;11.94;85.41;100103.16;3154559;28;20102;-69
2023/05/04 06:56:08;;;;;;;39.22;19.40;;;;;;;11.98;85.70;100098.63;3165826;28;20421;-72
2023/05/04 06:57:40;;;;;;;36.42;19.77;;;;;;;12.03;85.80;100107.09;3166079;28;20062;-70
2023/05/04 06:59:12;;;;;;;30.65;19.42;;;;;;;12.07;85.60;100098.22;3140796;28;20056;-74
2023/05/04 07:00:46;;;;;;;36.55;20.60;;;;;;;12.11;85.68;100102.38;3155341;28;20058;-75
2023/05/04 07:02:19;;;;;;;32.45;18.45;;;;;;;12.12;85.66;100103.22;3162364;28;20191;-70